sensor_id;sensor_type;location;lat;lon;timestamp;P1;durP1;ratioP1;P2;durP2;ratioP2
46491;SDS011;32206;51.446;6.792;2023-04-25T00:00:32;17.75;;;4.75;;
46491;SDS011;32206;51.446;6.792;2023-04-25T00:06:22;14.38;;;3.92;;
46491;SDS011;32206;51.446;6.792;2023-04-25T00:15:36;8.55;;;3.88;;
46491;SDS011;32206;51.446;6.792;2023-04-25T00:24:47;12.18;;;4.40;;
46491;SDS011;32206;51.446;6.792;2023-04-25T00:27:12;10.95;;;3.53;;
46491;SDS011;32206;51.446;6.792;2023-04-25T00:29:38;12.52;;;3.85;;
46491;SDS011;32206;51.446;6.792;2023-04-25T00:32:04;10.43;;;3.90;;
46491;SDS011;32206;51.446;6.792;2023-04-25T00:37:58;13.73;;;3.92;;
46491;SDS011;32206;51.446;6.792;2023-04-25T00:40:23;9.60;;;4.60;;
46491;SDS011;32206;51.446;6.792;2023-04-25T00:46:11;11.68;;;4.57;;
46491;SDS011;32206;51.446;6.792;2023-04-25T00:55:21;7.90;;;4.40;;
46491;SDS011;32206;51.446;6.792;2023-04-25T00:57:47;11.38;;;4.22;;
46491;SDS011;32206;51.446;6.792;2023-04-25T01:00:13;12.73;;;4.30;;
46491;SDS011;32206;51.446;6.792;2023-04-25T01:02:39;10.80;;;3.90;;
46491;SDS011;32206;51.446;6.792;2023-04-25T01:05:07;11.13;;;4.05;;
46491;SDS011;32206;51.446;6.792;2023-04-25T01:07:33;12.40;;;3.97;;
46491;SDS011;32206;51.446;6.792;2023-04-25T01:09:59;9.00;;;4.00;;
46491;SDS011;32206;51.446;6.792;2023-04-25T01:12:25;13.30;;;4.50;;
46491;SDS011;32206;51.446;6.792;2023-04-25T01:14:51;12.90;;;4.18;;
46491;SDS011;32206;51.446;6.792;2023-04-25T01:17:19;15.02;;;4.70;;
46491;SDS011;32206;51.446;6.792;2023-04-25T01:25:58;12.68;;;4.00;;
46491;SDS011;32206;51.446;6.792;2023-04-25T01:28:24;13.20;;;4.03;;
46491;SDS011;32206;51.446;6.792;2023-04-25T01:30:50;13.23;;;4.25;;
46491;SDS011;32206;51.446;6.792;2023-04-25T01:33:16;18.40;;;6.70;;
46491;SDS011;32206;51.446;6.792;2023-04-25T01:35:44;10.23;;;4.25;;
46491;SDS011;32206;51.446;6.792;2023-04-25T01:38:09;15.23;;;5.05;;
46491;SDS011;32206;51.446;6.792;2023-04-25T01:40:37;8.30;;;3.83;;
46491;SDS011;32206;51.446;6.792;2023-04-25T01:43:05;12.77;;;4.70;;
46491;SDS011;32206;51.446;6.792;2023-04-25T01:45:31;10.70;;;3.75;;
46491;SDS011;32206;51.446;6.792;2023-04-25T01:47:57;11.68;;;3.70;;
46491;SDS011;32206;51.446;6.792;2023-04-25T01:50:25;8.98;;;3.88;;
46491;SDS011;32206;51.446;6.792;2023-04-25T01:52:50;14.50;;;4.57;;
46491;SDS011;32206;51.446;6.792;2023-04-25T01:55:16;14.75;;;4.88;;
46491;SDS011;32206;51.446;6.792;2023-04-25T02:03:55;8.00;;;5.03;;
46491;SDS011;32206;51.446;6.792;2023-04-25T02:06:20;6.10;;;3.95;;
46491;SDS011;32206;51.446;6.792;2023-04-25T02:08:46;13.70;;;5.47;;
46491;SDS011;32206;51.446;6.792;2023-04-25T02:11:12;7.85;;;3.95;;
46491;SDS011;32206;51.446;6.792;2023-04-25T02:13:37;10.63;;;4.95;;
46491;SDS011;32206;51.446;6.792;2023-04-25T02:16:03;13.50;;;3.95;;
46491;SDS011;32206;51.446;6.792;2023-04-25T02:18:29;11.48;;;4.40;;
46491;SDS011;32206;51.446;6.792;2023-04-25T02:24:18;8.32;;;4.03;;
46491;SDS011;32206;51.446;6.792;2023-04-25T02:26:44;10.25;;;4.72;;
46491;SDS011;32206;51.446;6.792;2023-04-25T02:29:09;16.75;;;4.72;;
46491;SDS011;32206;51.446;6.792;2023-04-25T02:42:02;11.40;;;3.95;;
46491;SDS011;32206;51.446;6.792;2023-04-25T02:44:28;10.73;;;4.38;;
46491;SDS011;32206;51.446;6.792;2023-04-25T02:46:54;13.63;;;5.15;;
46491;SDS011;32206;51.446;6.792;2023-04-25T02:49:19;6.10;;;3.65;;
46491;SDS011;32206;51.446;6.792;2023-04-25T02:58:29;11.77;;;4.07;;
46491;SDS011;32206;51.446;6.792;2023-04-25T03:00:55;13.50;;;4.20;;
46491;SDS011;32206;51.446;6.792;2023-04-25T03:03:20;13.65;;;4.88;;
46491;SDS011;32206;51.446;6.792;2023-04-25T03:12:07;8.60;;;4.32;;
46491;SDS011;32206;51.446;6.792;2023-04-25T03:14:33;10.02;;;4.13;;
46491;SDS011;32206;51.446;6.792;2023-04-25T03:16:59;18.45;;;5.75;;
46491;SDS011;32206;51.446;6.792;2023-04-25T03:19:25;16.30;;;5.50;;
46491;SDS011;32206;51.446;6.792;2023-04-25T03:25:13;13.23;;;5.53;;
46491;SDS011;32206;51.446;6.792;2023-04-25T03:27:38;14.02;;;4.72;;
46491;SDS011;32206;51.446;6.792;2023-04-25T03:30:04;19.42;;;6.53;;
46491;SDS011;32206;51.446;6.792;2023-04-25T03:32:31;10.65;;;3.80;;
46491;SDS011;32206;51.446;6.792;2023-04-25T03:34:57;15.48;;;4.15;;
46491;SDS011;32206;51.446;6.792;2023-04-25T03:40:45;13.93;;;4.97;;
46491;SDS011;32206;51.446;6.792;2023-04-25T03:43:10;27.52;;;9.35;;
46491;SDS011;32206;51.446;6.792;2023-04-25T03:45:36;16.20;;;5.28;;
46491;SDS011;32206;51.446;6.792;2023-04-25T03:48:02;12.40;;;4.82;;
46491;SDS011;32206;51.446;6.792;2023-04-25T04:00:35;30.48;;;11.43;;
46491;SDS011;32206;51.446;6.792;2023-04-25T04:03:00;22.45;;;6.38;;
46491;SDS011;32206;51.446;6.792;2023-04-25T04:05:26;15.10;;;5.10;;
46491;SDS011;32206;51.446;6.792;2023-04-25T04:07:52;10.38;;;3.90;;
46491;SDS011;32206;51.446;6.792;2023-04-25T04:10:18;16.90;;;4.72;;
46491;SDS011;32206;51.446;6.792;2023-04-25T04:19:03;20.70;;;5.05;;
46491;SDS011;32206;51.446;6.792;2023-04-25T04:21:29;10.13;;;4.07;;
46491;SDS011;32206;51.446;6.792;2023-04-25T04:23:55;15.80;;;5.07;;
46491;SDS011;32206;51.446;6.792;2023-04-25T04:26:22;16.27;;;5.05;;
46491;SDS011;32206;51.446;6.792;2023-04-25T04:28:48;16.63;;;5.47;;
46491;SDS011;32206;51.446;6.792;2023-04-25T04:31:19;17.40;;;5.95;;
46491;SDS011;32206;51.446;6.792;2023-04-25T04:33:46;16.05;;;5.20;;
46491;SDS011;32206;51.446;6.792;2023-04-25T04:36:12;16.95;;;5.25;;
46491;SDS011;32206;51.446;6.792;2023-04-25T04:38:38;22.17;;;6.05;;
46491;SDS011;32206;51.446;6.792;2023-04-25T04:41:05;16.35;;;5.40;;
46491;SDS011;32206;51.446;6.792;2023-04-25T04:43:31;29.17;;;7.43;;
46491;SDS011;32206;51.446;6.792;2023-04-25T04:45:58;19.70;;;6.70;;
46491;SDS011;32206;51.446;6.792;2023-04-25T04:48:25;25.77;;;6.60;;
46491;SDS011;32206;51.446;6.792;2023-04-25T04:50:51;19.48;;;5.20;;
46491;SDS011;32206;51.446;6.792;2023-04-25T04:53:17;17.10;;;5.38;;
46491;SDS011;32206;51.446;6.792;2023-04-25T04:55:44;20.17;;;6.47;;
46491;SDS011;32206;51.446;6.792;2023-04-25T04:58:09;18.10;;;6.10;;
46491;SDS011;32206;51.446;6.792;2023-04-25T05:03:57;12.20;;;4.93;;
46491;SDS011;32206;51.446;6.792;2023-04-25T05:06:28;22.67;;;5.88;;
46491;SDS011;32206;51.446;6.792;2023-04-25T05:08:55;18.63;;;5.00;;
46491;SDS011;32206;51.446;6.792;2023-04-25T05:11:22;20.08;;;5.68;;
46491;SDS011;32206;51.446;6.792;2023-04-25T05:13:49;18.13;;;6.20;;
46491;SDS011;32206;51.446;6.792;2023-04-25T05:16:16;18.38;;;5.40;;
46491;SDS011;32206;51.446;6.792;2023-04-25T05:18:42;15.85;;;5.63;;
46491;SDS011;32206;51.446;6.792;2023-04-25T05:21:07;17.45;;;5.65;;
46491;SDS011;32206;51.446;6.792;2023-04-25T05:30:17;15.55;;;5.07;;
46491;SDS011;32206;51.446;6.792;2023-04-25T05:32:43;17.15;;;5.88;;
46491;SDS011;32206;51.446;6.792;2023-04-25T05:35:09;18.23;;;5.70;;
46491;SDS011;32206;51.446;6.792;2023-04-25T05:43:45;15.60;;;5.97;;
46491;SDS011;32206;51.446;6.792;2023-04-25T05:46:12;18.17;;;5.75;;
46491;SDS011;32206;51.446;6.792;2023-04-25T05:48:39;31.33;;;6.97;;
46491;SDS011;32206;51.446;6.792;2023-04-25T05:51:05;17.60;;;5.75;;
46491;SDS011;32206;51.446;6.792;2023-04-25T06:00:15;21.98;;;4.93;;
46491;SDS011;32206;51.446;6.792;2023-04-25T06:02:41;16.52;;;5.00;;
46491;SDS011;32206;51.446;6.792;2023-04-25T06:05:07;17.83;;;4.70;;
46491;SDS011;32206;51.446;6.792;2023-04-25T06:21:27;8.02;;;3.70;;
46491;SDS011;32206;51.446;6.792;2023-04-25T06:27:15;18.85;;;4.28;;
46491;SDS011;32206;51.446;6.792;2023-04-25T06:29:40;10.52;;;3.20;;
46491;SDS011;32206;51.446;6.792;2023-04-25T06:32:06;13.65;;;4.20;;
46491;SDS011;32206;51.446;6.792;2023-04-25T06:34:32;16.55;;;5.45;;
46491;SDS011;32206;51.446;6.792;2023-04-25T06:36:57;14.00;;;3.40;;
46491;SDS011;32206;51.446;6.792;2023-04-25T06:42:45;15.10;;;4.80;;
46491;SDS011;32206;51.446;6.792;2023-04-25T06:45:10;18.27;;;3.97;;
46491;SDS011;32206;51.446;6.792;2023-04-25T06:47:36;16.60;;;6.30;;
46491;SDS011;32206;51.446;6.792;2023-04-25T06:50:02;27.50;;;6.35;;
46491;SDS011;32206;51.446;6.792;2023-04-25T06:55:43;19.17;;;5.53;;
46491;SDS011;32206;51.446;6.792;2023-04-25T06:58:09;14.88;;;4.22;;
46491;SDS011;32206;51.446;6.792;2023-04-25T07:00:35;17.13;;;4.55;;
46491;SDS011;32206;51.446;6.792;2023-04-25T07:06:23;7.45;;;3.97;;
46491;SDS011;32206;51.446;6.792;2023-04-25T07:12:13;15.15;;;4.53;;
46491;SDS011;32206;51.446;6.792;2023-04-25T07:14:39;10.68;;;4.65;;
46491;SDS011;32206;51.446;6.792;2023-04-25T07:20:27;20.73;;;5.32;;
46491;SDS011;32206;51.446;6.792;2023-04-25T07:29:36;16.70;;;4.25;;
46491;SDS011;32206;51.446;6.792;2023-04-25T07:35:25;17.75;;;5.68;;
46491;SDS011;32206;51.446;6.792;2023-04-25T07:37:51;18.85;;;5.38;;
46491;SDS011;32206;51.446;6.792;2023-04-25T07:47:03;12.70;;;3.67;;
46491;SDS011;32206;51.446;6.792;2023-04-25T07:49:34;12.55;;;3.97;;
46491;SDS011;32206;51.446;6.792;2023-04-25T07:52:02;21.55;;;4.47;;
46491;SDS011;32206;51.446;6.792;2023-04-25T08:01:13;10.00;;;3.28;;
46491;SDS011;32206;51.446;6.792;2023-04-25T08:03:39;14.27;;;4.05;;
46491;SDS011;32206;51.446;6.792;2023-04-25T08:06:05;16.35;;;3.92;;
46491;SDS011;32206;51.446;6.792;2023-04-25T08:15:18;16.95;;;4.28;;
46491;SDS011;32206;51.446;6.792;2023-04-25T08:17:44;14.20;;;4.35;;
46491;SDS011;32206;51.446;6.792;2023-04-25T08:20:10;14.90;;;5.22;;
46491;SDS011;32206;51.446;6.792;2023-04-25T08:22:36;15.27;;;4.32;;
46491;SDS011;32206;51.446;6.792;2023-04-25T08:27:59;8.95;;;2.78;;
46491;SDS011;32206;51.446;6.792;2023-04-25T08:30:27;7.57;;;2.13;;
46491;SDS011;32206;51.446;6.792;2023-04-25T08:32:53;6.45;;;1.83;;
46491;SDS011;32206;51.446;6.792;2023-04-25T08:35:19;10.45;;;3.70;;
46491;SDS011;32206;51.446;6.792;2023-04-25T08:37:45;18.77;;;3.55;;
46491;SDS011;32206;51.446;6.792;2023-04-25T08:43:33;15.80;;;3.05;;
46491;SDS011;32206;51.446;6.792;2023-04-25T08:46:00;18.77;;;3.55;;
46491;SDS011;32206;51.446;6.792;2023-04-25T08:48:29;13.25;;;3.47;;
46491;SDS011;32206;51.446;6.792;2023-04-25T08:50:57;9.88;;;2.45;;
46491;SDS011;32206;51.446;6.792;2023-04-25T08:53:27;10.60;;;2.15;;
46491;SDS011;32206;51.446;6.792;2023-04-25T08:59:16;9.10;;;2.22;;
46491;SDS011;32206;51.446;6.792;2023-04-25T09:01:42;3.90;;;1.55;;
46491;SDS011;32206;51.446;6.792;2023-04-25T09:04:08;10.35;;;1.77;;
46491;SDS011;32206;51.446;6.792;2023-04-25T09:06:33;7.13;;;1.63;;
46491;SDS011;32206;51.446;6.792;2023-04-25T09:15:52;10.43;;;2.45;;
46491;SDS011;32206;51.446;6.792;2023-04-25T09:21:08;11.43;;;2.55;;
46491;SDS011;32206;51.446;6.792;2023-04-25T09:23:46;15.02;;;2.10;;
46491;SDS011;32206;51.446;6.792;2023-04-25T09:26:17;12.80;;;2.60;;
46491;SDS011;32206;51.446;6.792;2023-04-25T09:28:44;8.02;;;1.73;;
46491;SDS011;32206;51.446;6.792;2023-04-25T09:31:10;10.48;;;2.17;;
46491;SDS011;32206;51.446;6.792;2023-04-25T09:33:36;11.52;;;2.20;;
46491;SDS011;32206;51.446;6.792;2023-04-25T09:36:04;11.90;;;1.95;;
46491;SDS011;32206;51.446;6.792;2023-04-25T09:38:32;12.35;;;1.75;;
46491;SDS011;32206;51.446;6.792;2023-04-25T09:41:06;6.85;;;1.55;;
46491;SDS011;32206;51.446;6.792;2023-04-25T09:43:32;10.50;;;1.35;;
46491;SDS011;32206;51.446;6.792;2023-04-25T09:45:58;8.55;;;1.65;;
46491;SDS011;32206;51.446;6.792;2023-04-25T09:48:25;11.32;;;1.80;;
46491;SDS011;32206;51.446;6.792;2023-04-25T09:51:04;8.75;;;1.70;;
46491;SDS011;32206;51.446;6.792;2023-04-25T09:53:31;3.92;;;1.50;;
46491;SDS011;32206;51.446;6.792;2023-04-25T09:55:59;4.68;;;1.17;;
46491;SDS011;32206;51.446;6.792;2023-04-25T09:58:28;11.52;;;1.70;;
46491;SDS011;32206;51.446;6.792;2023-04-25T10:00:55;4.80;;;0.93;;
46491;SDS011;32206;51.446;6.792;2023-04-25T10:06:48;3.65;;;1.10;;
46491;SDS011;32206;51.446;6.792;2023-04-25T10:09:15;3.38;;;1.33;;
46491;SDS011;32206;51.446;6.792;2023-04-25T10:15:05;6.38;;;1.42;;
46491;SDS011;32206;51.446;6.792;2023-04-25T10:17:32;4.03;;;1.00;;
46491;SDS011;32206;51.446;6.792;2023-04-25T10:20:01;7.53;;;0.90;;
46491;SDS011;32206;51.446;6.792;2023-04-25T10:22:34;5.07;;;1.45;;
46491;SDS011;32206;51.446;6.792;2023-04-25T10:28:10;5.65;;;1.10;;
46491;SDS011;32206;51.446;6.792;2023-04-25T10:30:35;4.35;;;1.40;;
46491;SDS011;32206;51.446;6.792;2023-04-25T10:33:01;5.30;;;1.20;;
46491;SDS011;32206;51.446;6.792;2023-04-25T10:35:41;9.15;;;1.75;;
46491;SDS011;32206;51.446;6.792;2023-04-25T10:38:10;6.47;;;1.23;;
46491;SDS011;32206;51.446;6.792;2023-04-25T10:47:02;5.50;;;2.25;;
46491;SDS011;32206;51.446;6.792;2023-04-25T10:49:37;7.35;;;1.30;;
46491;SDS011;32206;51.446;6.792;2023-04-25T10:52:17;10.65;;;1.20;;
46491;SDS011;32206;51.446;6.792;2023-04-25T10:54:53;17.23;;;1.85;;
46491;SDS011;32206;51.446;6.792;2023-04-25T10:57:53;4.93;;;1.75;;
46491;SDS011;32206;51.446;6.792;2023-04-25T11:00:18;8.13;;;1.67;;
46491;SDS011;32206;51.446;6.792;2023-04-25T11:06:22;6.35;;;1.05;;
46491;SDS011;32206;51.446;6.792;2023-04-25T11:08:52;3.47;;;1.10;;
46491;SDS011;32206;51.446;6.792;2023-04-25T11:11:18;6.00;;;1.13;;
46491;SDS011;32206;51.446;6.792;2023-04-25T11:13:44;5.10;;;1.52;;
46491;SDS011;32206;51.446;6.792;2023-04-25T11:16:13;3.33;;;1.40;;
46491;SDS011;32206;51.446;6.792;2023-04-25T11:18:42;3.72;;;1.15;;
46491;SDS011;32206;51.446;6.792;2023-04-25T11:21:09;8.43;;;1.10;;
46491;SDS011;32206;51.446;6.792;2023-04-25T11:23:36;2.75;;;1.17;;
46491;SDS011;32206;51.446;6.792;2023-04-25T11:26:02;2.83;;;0.93;;
46491;SDS011;32206;51.446;6.792;2023-04-25T11:28:29;3.05;;;1.02;;
46491;SDS011;32206;51.446;6.792;2023-04-25T11:30:55;3.55;;;1.65;;
46491;SDS011;32206;51.446;6.792;2023-04-25T11:33:24;7.13;;;1.27;;
46491;SDS011;32206;51.446;6.792;2023-04-25T11:35:53;9.20;;;1.67;;
46491;SDS011;32206;51.446;6.792;2023-04-25T11:38:21;4.43;;;1.83;;
46491;SDS011;32206;51.446;6.792;2023-04-25T11:47:32;4.35;;;1.20;;
46491;SDS011;32206;51.446;6.792;2023-04-25T11:49:59;12.63;;;2.33;;
46491;SDS011;32206;51.446;6.792;2023-04-25T11:52:35;15.40;;;2.35;;
46491;SDS011;32206;51.446;6.792;2023-04-25T11:55:05;8.05;;;1.85;;
46491;SDS011;32206;51.446;6.792;2023-04-25T12:00:54;6.63;;;2.20;;
46491;SDS011;32206;51.446;6.792;2023-04-25T12:03:23;4.13;;;1.30;;
46491;SDS011;32206;51.446;6.792;2023-04-25T12:05:51;5.65;;;0.80;;
46491;SDS011;32206;51.446;6.792;2023-04-25T12:08:16;5.90;;;1.42;;
46491;SDS011;32206;51.446;6.792;2023-04-25T12:10:43;4.72;;;1.27;;
46491;SDS011;32206;51.446;6.792;2023-04-25T12:15:49;3.70;;;1.20;;
46491;SDS011;32206;51.446;6.792;2023-04-25T12:18:18;2.85;;;1.10;;
46491;SDS011;32206;51.446;6.792;2023-04-25T12:20:44;5.63;;;1.42;;
46491;SDS011;32206;51.446;6.792;2023-04-25T12:23:10;5.10;;;1.52;;
46491;SDS011;32206;51.446;6.792;2023-04-25T12:28:10;9.63;;;5.13;;
46491;SDS011;32206;51.446;6.792;2023-04-25T12:33:22;4.75;;;1.65;;
46491;SDS011;32206;51.446;6.792;2023-04-25T12:35:48;3.97;;;1.25;;
46491;SDS011;32206;51.446;6.792;2023-04-25T12:38:28;6.07;;;1.20;;
46491;SDS011;32206;51.446;6.792;2023-04-25T12:41:00;4.22;;;1.35;;
46491;SDS011;32206;51.446;6.792;2023-04-25T12:43:26;2.35;;;1.00;;
46491;SDS011;32206;51.446;6.792;2023-04-25T12:45:52;3.35;;;1.15;;
46491;SDS011;32206;51.446;6.792;2023-04-25T12:48:19;4.03;;;0.90;;
46491;SDS011;32206;51.446;6.792;2023-04-25T12:50:45;4.93;;;1.30;;
46491;SDS011;32206;51.446;6.792;2023-04-25T12:53:14;4.07;;;0.95;;
46491;SDS011;32206;51.446;6.792;2023-04-25T12:55:40;3.20;;;1.55;;
46491;SDS011;32206;51.446;6.792;2023-04-25T12:58:06;3.17;;;1.00;;
46491;SDS011;32206;51.446;6.792;2023-04-25T13:00:32;6.03;;;1.23;;
46491;SDS011;32206;51.446;6.792;2023-04-25T13:02:58;4.75;;;0.98;;
46491;SDS011;32206;51.446;6.792;2023-04-25T13:05:24;4.68;;;1.13;;
46491;SDS011;32206;51.446;6.792;2023-04-25T13:07:50;7.70;;;1.30;;
46491;SDS011;32206;51.446;6.792;2023-04-25T13:10:16;4.15;;;1.05;;
46491;SDS011;32206;51.446;6.792;2023-04-25T13:12:43;1.92;;;0.75;;
46491;SDS011;32206;51.446;6.792;2023-04-25T13:15:08;7.47;;;1.15;;
46491;SDS011;32206;51.446;6.792;2023-04-25T13:17:36;10.43;;;1.60;;
46491;SDS011;32206;51.446;6.792;2023-04-25T13:20:05;2.58;;;0.70;;
46491;SDS011;32206;51.446;6.792;2023-04-25T13:22:33;2.80;;;1.00;;
46491;SDS011;32206;51.446;6.792;2023-04-25T13:25:02;9.32;;;2.10;;
46491;SDS011;32206;51.446;6.792;2023-04-25T13:33:53;3.90;;;1.40;;
46491;SDS011;32206;51.446;6.792;2023-04-25T13:36:19;5.22;;;1.23;;
46491;SDS011;32206;51.446;6.792;2023-04-25T13:38:45;9.20;;;1.90;;
46491;SDS011;32206;51.446;6.792;2023-04-25T13:41:12;5.65;;;2.00;;
46491;SDS011;32206;51.446;6.792;2023-04-25T13:47:04;7.18;;;1.67;;
46491;SDS011;32206;51.446;6.792;2023-04-25T13:49:30;11.57;;;1.80;;
46491;SDS011;32206;51.446;6.792;2023-04-25T13:51:56;5.60;;;1.20;;
46491;SDS011;32206;51.446;6.792;2023-04-25T13:54:21;3.63;;;1.23;;
46491;SDS011;32206;51.446;6.792;2023-04-25T13:56:48;4.80;;;1.35;;
46491;SDS011;32206;51.446;6.792;2023-04-25T14:02:37;3.47;;;1.30;;
46491;SDS011;32206;51.446;6.792;2023-04-25T14:08:25;4.63;;;1.10;;
46491;SDS011;32206;51.446;6.792;2023-04-25T14:10:51;5.03;;;1.15;;
46491;SDS011;32206;51.446;6.792;2023-04-25T14:19:23;3.92;;;0.90;;
46491;SDS011;32206;51.446;6.792;2023-04-25T14:21:49;2.30;;;0.77;;
46491;SDS011;32206;51.446;6.792;2023-04-25T14:24:15;4.28;;;0.90;;
46491;SDS011;32206;51.446;6.792;2023-04-25T14:26:41;2.30;;;0.90;;
46491;SDS011;32206;51.446;6.792;2023-04-25T14:32:29;3.05;;;0.60;;
46491;SDS011;32206;51.446;6.792;2023-04-25T14:34:57;2.53;;;0.85;;
46491;SDS011;32206;51.446;6.792;2023-04-25T14:37:22;4.35;;;0.90;;
46491;SDS011;32206;51.446;6.792;2023-04-25T14:39:48;3.15;;;1.05;;
46491;SDS011;32206;51.446;6.792;2023-04-25T14:42:14;14.25;;;1.27;;
46491;SDS011;32206;51.446;6.792;2023-04-25T14:48:02;5.30;;;1.10;;
46491;SDS011;32206;51.446;6.792;2023-04-25T14:50:27;4.82;;;1.30;;
46491;SDS011;32206;51.446;6.792;2023-04-25T14:52:53;4.70;;;1.38;;
46491;SDS011;32206;51.446;6.792;2023-04-25T14:55:23;6.65;;;1.50;;
46491;SDS011;32206;51.446;6.792;2023-04-25T14:57:49;10.13;;;1.08;;
46491;SDS011;32206;51.446;6.792;2023-04-25T15:00:15;4.75;;;1.10;;
46491;SDS011;32206;51.446;6.792;2023-04-25T15:02:42;2.97;;;1.60;;
46491;SDS011;32206;51.446;6.792;2023-04-25T15:05:07;8.57;;;1.45;;
46491;SDS011;32206;51.446;6.792;2023-04-25T15:07:33;3.25;;;1.15;;
46491;SDS011;32206;51.446;6.792;2023-04-25T15:10:00;5.68;;;1.33;;
46491;SDS011;32206;51.446;6.792;2023-04-25T15:12:26;4.40;;;1.10;;
46491;SDS011;32206;51.446;6.792;2023-04-25T15:18:15;6.25;;;1.10;;
46491;SDS011;32206;51.446;6.792;2023-04-25T15:20:40;3.20;;;1.30;;
46491;SDS011;32206;51.446;6.792;2023-04-25T15:23:06;1.98;;;1.02;;
46491;SDS011;32206;51.446;6.792;2023-04-25T15:28:54;1.80;;;0.98;;
46491;SDS011;32206;51.446;6.792;2023-04-25T15:31:20;2.42;;;0.73;;
46491;SDS011;32206;51.446;6.792;2023-04-25T15:33:46;3.70;;;1.15;;
46491;SDS011;32206;51.446;6.792;2023-04-25T15:36:11;4.22;;;0.95;;
46491;SDS011;32206;51.446;6.792;2023-04-25T15:38:37;3.80;;;1.17;;
46491;SDS011;32206;51.446;6.792;2023-04-25T15:41:03;5.18;;;1.48;;
46491;SDS011;32206;51.446;6.792;2023-04-25T15:43:30;7.32;;;1.50;;
46491;SDS011;32206;51.446;6.792;2023-04-25T15:45:55;3.90;;;1.40;;
46491;SDS011;32206;51.446;6.792;2023-04-25T15:48:21;3.72;;;1.10;;
46491;SDS011;32206;51.446;6.792;2023-04-25T15:50:47;3.97;;;1.15;;
46491;SDS011;32206;51.446;6.792;2023-04-25T15:53:12;3.53;;;1.00;;
46491;SDS011;32206;51.446;6.792;2023-04-25T15:55:38;4.13;;;1.17;;
46491;SDS011;32206;51.446;6.792;2023-04-25T15:58:04;2.60;;;0.90;;
46491;SDS011;32206;51.446;6.792;2023-04-25T16:00:29;2.58;;;0.68;;
46491;SDS011;32206;51.446;6.792;2023-04-25T16:02:58;2.95;;;1.20;;
46491;SDS011;32206;51.446;6.792;2023-04-25T16:05:24;10.07;;;0.93;;
46491;SDS011;32206;51.446;6.792;2023-04-25T16:07:50;4.47;;;0.85;;
46491;SDS011;32206;51.446;6.792;2023-04-25T16:10:20;4.18;;;1.30;;
46491;SDS011;32206;51.446;6.792;2023-04-25T16:12:47;2.30;;;1.02;;
46491;SDS011;32206;51.446;6.792;2023-04-25T16:18:36;4.13;;;0.80;;
46491;SDS011;32206;51.446;6.792;2023-04-25T16:21:02;5.38;;;1.10;;
46491;SDS011;32206;51.446;6.792;2023-04-25T16:23:28;7.95;;;1.30;;
46491;SDS011;32206;51.446;6.792;2023-04-25T16:25:53;7.20;;;1.30;;
46491;SDS011;32206;51.446;6.792;2023-04-25T16:28:19;4.95;;;2.03;;
46491;SDS011;32206;51.446;6.792;2023-04-25T16:30:45;6.18;;;2.83;;
46491;SDS011;32206;51.446;6.792;2023-04-25T16:33:10;4.15;;;1.33;;
46491;SDS011;32206;51.446;6.792;2023-04-25T16:35:36;5.63;;;0.82;;
46491;SDS011;32206;51.446;6.792;2023-04-25T16:38:02;4.13;;;1.05;;
46491;SDS011;32206;51.446;6.792;2023-04-25T16:40:28;1.50;;;0.60;;
46491;SDS011;32206;51.446;6.792;2023-04-25T16:42:54;4.90;;;0.80;;
46491;SDS011;32206;51.446;6.792;2023-04-25T16:48:42;5.35;;;0.73;;
46491;SDS011;32206;51.446;6.792;2023-04-25T16:51:08;2.75;;;1.10;;
46491;SDS011;32206;51.446;6.792;2023-04-25T16:56:56;4.53;;;1.33;;
46491;SDS011;32206;51.446;6.792;2023-04-25T17:06:06;3.30;;;1.75;;
46491;SDS011;32206;51.446;6.792;2023-04-25T17:08:32;5.55;;;1.35;;
46491;SDS011;32206;51.446;6.792;2023-04-25T17:10:57;3.30;;;1.08;;
46491;SDS011;32206;51.446;6.792;2023-04-25T17:13:23;5.90;;;1.75;;
46491;SDS011;32206;51.446;6.792;2023-04-25T17:19:11;6.63;;;1.17;;
46491;SDS011;32206;51.446;6.792;2023-04-25T17:21:37;7.50;;;1.55;;
46491;SDS011;32206;51.446;6.792;2023-04-25T17:24:03;5.53;;;1.10;;
46491;SDS011;32206;51.446;6.792;2023-04-25T17:32:33;3.78;;;1.23;;
46491;SDS011;32206;51.446;6.792;2023-04-25T17:34:59;4.18;;;1.10;;
46491;SDS011;32206;51.446;6.792;2023-04-25T17:37:25;4.43;;;1.08;;
46491;SDS011;32206;51.446;6.792;2023-04-25T17:39:52;4.50;;;0.73;;
46491;SDS011;32206;51.446;6.792;2023-04-25T17:42:18;3.35;;;0.70;;
46491;SDS011;32206;51.446;6.792;2023-04-25T17:48:06;4.32;;;0.70;;
46491;SDS011;32206;51.446;6.792;2023-04-25T17:50:32;3.65;;;0.80;;
46491;SDS011;32206;51.446;6.792;2023-04-25T17:52:58;9.15;;;1.02;;
46491;SDS011;32206;51.446;6.792;2023-04-25T17:55:27;4.40;;;0.80;;
46491;SDS011;32206;51.446;6.792;2023-04-25T17:57:52;2.70;;;0.88;;
46491;SDS011;32206;51.446;6.792;2023-04-25T18:06:54;4.97;;;1.00;;
46491;SDS011;32206;51.446;6.792;2023-04-25T18:09:20;4.57;;;1.20;;
46491;SDS011;32206;51.446;6.792;2023-04-25T18:11:47;11.18;;;2.65;;
46491;SDS011;32206;51.446;6.792;2023-04-25T18:14:16;9.75;;;2.13;;
46491;SDS011;32206;51.446;6.792;2023-04-25T18:20:05;6.22;;;1.88;;
46491;SDS011;32206;51.446;6.792;2023-04-25T18:22:32;6.07;;;2.38;;
46491;SDS011;32206;51.446;6.792;2023-04-25T18:24:58;5.75;;;1.05;;
46491;SDS011;32206;51.446;6.792;2023-04-25T18:27:25;9.00;;;1.80;;
46491;SDS011;32206;51.446;6.792;2023-04-25T18:29:51;5.18;;;1.95;;
46491;SDS011;32206;51.446;6.792;2023-04-25T18:35:39;2.40;;;1.23;;
46491;SDS011;32206;51.446;6.792;2023-04-25T18:44:29;6.03;;;1.77;;
46491;SDS011;32206;51.446;6.792;2023-04-25T18:47:03;4.28;;;1.65;;
46491;SDS011;32206;51.446;6.792;2023-04-25T18:49:30;4.97;;;1.80;;
46491;SDS011;32206;51.446;6.792;2023-04-25T18:51:56;8.02;;;2.17;;
46491;SDS011;32206;51.446;6.792;2023-04-25T18:54:22;3.80;;;1.30;;
46491;SDS011;32206;51.446;6.792;2023-04-25T18:56:48;6.22;;;1.52;;
46491;SDS011;32206;51.446;6.792;2023-04-25T18:59:13;6.07;;;1.33;;
46491;SDS011;32206;51.446;6.792;2023-04-25T19:01:40;9.70;;;1.75;;
46491;SDS011;32206;51.446;6.792;2023-04-25T19:04:06;6.40;;;1.05;;
46491;SDS011;32206;51.446;6.792;2023-04-25T19:06:33;1.73;;;0.93;;
46491;SDS011;32206;51.446;6.792;2023-04-25T19:08:59;4.40;;;1.70;;
46491;SDS011;32206;51.446;6.792;2023-04-25T19:11:26;5.75;;;2.25;;
46491;SDS011;32206;51.446;6.792;2023-04-25T19:13:52;5.15;;;1.13;;
46491;SDS011;32206;51.446;6.792;2023-04-25T19:16:21;2.50;;;0.80;;
46491;SDS011;32206;51.446;6.792;2023-04-25T19:18:47;6.53;;;1.15;;
46491;SDS011;32206;51.446;6.792;2023-04-25T19:21:15;7.28;;;1.17;;
46491;SDS011;32206;51.446;6.792;2023-04-25T19:23:41;4.85;;;1.10;;
46491;SDS011;32206;51.446;6.792;2023-04-25T19:26:06;5.03;;;1.38;;
46491;SDS011;32206;51.446;6.792;2023-04-25T19:28:32;3.72;;;1.20;;
46491;SDS011;32206;51.446;6.792;2023-04-25T19:34:20;5.93;;;1.83;;
46491;SDS011;32206;51.446;6.792;2023-04-25T19:36:47;4.15;;;0.98;;
46491;SDS011;32206;51.446;6.792;2023-04-25T19:39:16;4.30;;;1.67;;
46491;SDS011;32206;51.446;6.792;2023-04-25T19:41:42;4.35;;;1.42;;
46491;SDS011;32206;51.446;6.792;2023-04-25T19:44:08;2.35;;;1.20;;
46491;SDS011;32206;51.446;6.792;2023-04-25T19:50:03;2.85;;;1.38;;
46491;SDS011;32206;51.446;6.792;2023-04-25T19:52:31;4.10;;;0.90;;
46491;SDS011;32206;51.446;6.792;2023-04-25T19:54:58;2.72;;;0.80;;
46491;SDS011;32206;51.446;6.792;2023-04-25T19:57:26;5.57;;;1.20;;
46491;SDS011;32206;51.446;6.792;2023-04-25T19:59:57;6.07;;;1.60;;
46491;SDS011;32206;51.446;6.792;2023-04-25T20:02:28;3.30;;;1.13;;
46491;SDS011;32206;51.446;6.792;2023-04-25T20:04:53;1.98;;;1.30;;
46491;SDS011;32206;51.446;6.792;2023-04-25T20:07:19;4.13;;;1.25;;
46491;SDS011;32206;51.446;6.792;2023-04-25T20:16:30;5.40;;;0.90;;